Time;durP1;ratioP1;P1;durP2;ratioP2;P2;SDS_P1;SDS_P2;PMS_P1;PMS_P2;Temp;Humidity;BMP_temperature;BMP_pressure;BME280_temperature;BME280_humidity;BME280_pressure;Samples;Min_cycle;Max_cycle;Signal;HPM_P1;HPM_P2
2022/10/20 00:01:37;;;;;;;;;;;;;;;5.99;52.73;101776.09;4945954;28;99869;-67
2022/10/20 00:04:04;;;;;;;;;;;;;;;5.95;52.38;101777.53;4954899;28;98158;-68
2022/10/20 00:06:31;;;;;;;;;;;;;;;5.90;52.52;101772.75;4924345;28;97974;-68
2022/10/20 00:08:59;;;;;;;;;;;;;;;5.87;52.60;101772.34;4949336;28;99219;-63
2022/10/20 00:11:25;;;;;;;;;;;;;;;5.82;52.26;101772.97;4926262;28;100139;-68
2022/10/20 00:13:52;;;;;;;;;;;;;;;5.80;52.10;101787.56;4939667;28;98028;-64
2022/10/20 00:16:18;;;;;;;;;;;;;;;5.77;52.51;101779.94;4950978;28;98086;-67
2022/10/20 00:18:45;;;;;;;;;;;;;;;5.75;52.20;101780.16;4925318;28;97926;-68
2022/10/20 00:21:17;;;;;;;;;;;;;;;5.72;52.24;101777.88;4927443;28;98142;-68
2022/10/20 00:23:43;;;;;;;;;;;;;;;5.72;52.21;101771.72;4926934;28;98807;-68
2022/10/20 00:26:20;;;;;;;;;;;;;;;5.70;52.29;101765.72;4953625;28;97959;-68
2022/10/20 00:28:46;;;;;;;;;;;;;;;5.65;52.47;101764.47;4944297;28;97883;-68
2022/10/20 00:31:13;;;;;;;;;;;;;;;5.65;52.68;101755.63;4939013;28;97840;-63
2022/10/20 00:33:39;;;;;;;;;;;;;;;5.62;52.77;101758.72;4939601;28;109033;-64
2022/10/20 00:36:06;;;;;;;;;;;;;;;5.59;52.64;101759.97;4939367;28;97898;-67
2022/10/20 00:38:32;;;;;;;;;;;;;;;5.57;52.53;101764.66;4943429;28;97975;-68
2022/10/20 00:40:59;;;;;;;;;;;;;;;5.55;52.65;101756.03;4951398;28;117494;-63
2022/10/20 00:43:44;;;;;;;;;;;;;;;5.54;52.43;101749.03;4935634;28;98154;-63
2022/10/20 00:46:12;;;;;;;;;;;;;;;5.54;52.20;101750.88;4955824;28;98252;-63
2022/10/20 00:48:38;;;;;;;;;;;;;;;5.53;52.43;101755.41;4942639;28;98174;-64
2022/10/20 00:51:04;;;;;;;;;;;;;;;5.54;52.07;101749.03;4951259;28;97978;-68
2022/10/20 00:53:30;;;;;;;;;;;;;;;5.53;52.44;101744.69;4946729;28;97912;-63
2022/10/20 00:55:56;;;;;;;;;;;;;;;5.54;52.25;101737.50;4943249;28;97850;-68
2022/10/20 00:58:23;;;;;;;;;;;;;;;5.54;52.54;101734.81;4959268;28;97832;-67
2022/10/20 01:00:51;;;;;;;;;;;;;;;5.55;52.57;101733.81;4942241;28;97947;-67
2022/10/20 01:03:44;;;;;;;;;;;;;;;5.56;52.19;101728.25;4939377;28;97910;-63
2022/10/20 01:06:12;;;;;;;;;;;;;;;5.58;51.97;101730.72;4947600;28;97986;-63
2022/10/20 01:08:38;;;;;;;;;;;;;;;5.57;52.14;101726.41;4919172;28;97972;-63
2022/10/20 01:11:06;;;;;;;;;;;;;;;5.56;52.55;101722.91;4926440;28;98021;-63
2022/10/20 01:13:42;;;;;;;;;;;;;;;5.56;51.89;101733.59;4919007;28;97884;-68
2022/10/20 01:16:38;;;;;;;;;;;;;;;5.53;52.69;101719.81;4956949;28;97849;-63
2022/10/20 01:19:23;;;;;;;;;;;;;;;5.50;52.42;101731.75;4958821;28;98709;-68
2022/10/20 01:22:24;;;;;;;;;;;;;;;5.47;52.13;101726.81;4963093;28;98215;-63
2022/10/20 01:25:05;;;;;;;;;;;;;;;5.41;52.27;101712.38;4908698;28;97962;-68
2022/10/20 01:27:33;;;;;;;;;;;;;;;5.39;51.95;101716.31;4938004;28;98045;-68
2022/10/20 01:30:07;;;;;;;;;;;;;;;5.37;51.99;101707.66;4902307;28;98100;-68
2022/10/20 01:32:53;;;;;;;;;;;;;;;5.36;52.64;101698.81;4944824;28;97863;-64
2022/10/20 01:35:25;;;;;;;;;;;;;;;5.33;52.35;101695.69;4926831;28;97863;-68
2022/10/20 01:37:58;;;;;;;;;;;;;;;5.29;52.16;101692.63;4919822;28;98483;-63
2022/10/20 01:40:30;;;;;;;;;;;;;;;5.20;52.11;101693.84;4948541;28;100067;-63
2022/10/20 01:42:58;;;;;;;;;;;;;;;5.16;52.53;101697.94;4950771;28;98100;-68
2022/10/20 01:45:26;;;;;;;;;;;;;;;5.12;52.08;101697.50;4929362;28;99194;-68
2022/10/20 01:47:53;;;;;;;;;;;;;;;5.07;51.92;101697.31;4930929;28;97963;-68
2022/10/20 01:50:19;;;;;;;;;;;;;;;5.03;51.96;101684.50;4917882;28;98162;-68
2022/10/20 01:52:45;;;;;;;;;;;;;;;5.01;51.99;101682.06;4948253;28;98074;-68
2022/10/20 01:55:13;;;;;;;;;;;;;;;5.01;52.60;101682.06;4950864;28;98057;-63
2022/10/20 01:57:52;;;;;;;;;;;;;;;5.00;52.32;101677.75;4938113;28;98589;-67
2022/10/20 02:00:19;;;;;;;;;;;;;;;5.01;52.34;101679.38;4956419;28;98220;-63
2022/10/20 02:03:09;;;;;;;;;;;;;;;5.02;52.74;101672.19;4934403;28;111498;-63
2022/10/20 02:06:03;;;;;;;;;;;;;;;4.99;52.39;101665.41;4964522;28;97949;-64
2022/10/20 02:08:32;;;;;;;;;;;;;;;4.96;52.26;101668.47;4923368;28;98343;-68
2022/10/20 02:11:00;;;;;;;;;;;;;;;4.96;52.08;101655.13;4957719;28;98529;-68
2022/10/20 02:13:27;;;;;;;;;;;;;;;4.93;52.01;101653.66;4942041;28;98144;-63
2022/10/20 02:15:56;;;;;;;;;;;;;;;4.94;52.52;101651.81;4936624;28;97983;-63
2022/10/20 02:18:25;;;;;;;;;;;;;;;4.93;52.60;101642.16;4945204;28;98208;-63
2022/10/20 02:20:53;;;;;;;;;;;;;;;4.92;52.79;101644.00;4923240;28;98349;-63
2022/10/20 02:23:19;;;;;;;;;;;;;;;4.94;52.08;101646.47;4933251;28;97954;-67
2022/10/20 02:25:50;;;;;;;;;;;;;;;4.96;52.68;101643.59;4934530;28;98117;-67
2022/10/20 02:28:16;;;;;;;;;;;;;;;4.96;52.68;101647.09;4936167;28;97958;-68
2022/10/20 02:30:42;;;;;;;;;;;;;;;4.95;52.35;101642.75;4947131;28;100779;-67
2022/10/20 02:33:08;;;;;;;;;;;;;;;4.96;52.54;101631.06;4919209;28;98249;-64
2022/10/20 02:35:34;;;;;;;;;;;;;;;4.97;52.25;101634.56;4905420;28;99328;-68
2022/10/20 02:38:01;;;;;;;;;;;;;;;4.97;52.07;101629.22;4939406;28;97798;-68
2022/10/20 02:40:27;;;;;;;;;;;;;;;4.96;51.99;101609.69;4903217;28;98051;-67
2022/10/20 02:42:53;;;;;;;;;;;;;;;4.99;52.48;101605.75;4941637;28;97817;-63
2022/10/20 02:45:19;;;;;;;;;;;;;;;5.01;52.14;101607.22;4929155;28;97898;-64
2022/10/20 02:47:45;;;;;;;;;;;;;;;5.02;51.96;101608.84;4937743;28;98321;-63
2022/10/20 02:50:11;;;;;;;;;;;;;;;5.03;52.00;101604.34;4941340;28;98413;-64
2022/10/20 02:52:39;;;;;;;;;;;;;;;5.06;52.05;101604.75;4929898;28;99027;-67
2022/10/20 02:55:05;;;;;;;;;;;;;;;5.08;51.95;101605.38;4951059;28;97864;-68
2022/10/20 02:57:31;;;;;;;;;;;;;;;5.09;52.40;101606.22;4940868;28;99739;-63
2022/10/20 02:59:57;;;;;;;;;;;;;;;5.09;52.47;101603.53;4937037;28;119994;-67
2022/10/20 03:02:23;;;;;;;;;;;;;;;5.09;52.03;101601.69;4939180;28;97950;-66
2022/10/20 03:04:49;;;;;;;;;;;;;;;5.08;52.61;101602.72;4925563;28;99839;-68
2022/10/20 03:07:16;;;;;;;;;;;;;;;5.06;52.45;101602.09;4946221;28;98416;-64
2022/10/20 03:09:43;;;;;;;;;;;;;;;5.04;52.36;101593.47;4940637;28;98114;-64
2022/10/20 03:12:09;;;;;;;;;;;;;;;5.04;52.72;101593.47;4932732;28;100240;-64
2022/10/20 03:14:36;;;;;;;;;;;;;;;5.05;52.37;101594.28;4918982;28;119408;-67
2022/10/20 03:17:02;;;;;;;;;;;;;;;5.03;52.04;101591.81;4939829;28;97898;-63
2022/10/20 03:19:28;;;;;;;;;;;;;;;5.03;52.02;101589.16;4932830;28;98168;-64
2022/10/20 03:21:54;;;;;;;;;;;;;;;5.03;52.13;101589.16;4931277;28;97906;-63
2022/10/20 03:24:20;;;;;;;;;;;;;;;5.04;51.99;101590.78;4939706;28;98108;-67
2022/10/20 03:26:46;;;;;;;;;;;;;;;5.05;52.57;101591.59;4935559;28;97857;-68
2022/10/20 03:29:12;;;;;;;;;;;;;;;5.03;52.17;101589.16;4937927;28;98071;-64
2022/10/20 03:31:38;;;;;;;;;;;;;;;5.05;52.60;101584.41;4940543;28;97974;-68
2022/10/20 03:34:04;;;;;;;;;;;;;;;5.05;51.92;101587.06;4934465;28;98176;-68
2022/10/20 03:36:30;;;;;;;;;;;;;;;5.06;52.09;101579.88;4942028;28;98575;-63
2022/10/20 03:38:57;;;;;;;;;;;;;;;5.06;52.27;101572.69;4941023;28;100078;-68
2022/10/20 03:41:23;;;;;;;;;;;;;;;5.08;52.37;101572.50;4930888;28;97916;-68
2022/10/20 03:43:49;;;;;;;;;;;;;;;5.09;52.75;101566.94;4932939;28;97995;-63
2022/10/20 03:46:15;;;;;;;;;;;;;;;5.11;52.69;101577.44;4939794;28;97848;-63
2022/10/20 03:48:41;;;;;;;;;;;;;;;5.13;52.23;101567.34;4941434;28;123703;-68
2022/10/20 03:51:08;;;;;;;;;;;;;;;5.14;51.94;101572.47;4935921;28;97842;-68
2022/10/20 03:53:34;;;;;;;;;;;;;;;5.16;52.09;101578.47;4940348;28;97992;-68
2022/10/20 03:56:11;;;;;;;;;;;;;;;5.17;52.07;101572.06;4922016;28;97912;-68
2022/10/20 03:58:38;;;;;;;;;;;;;;;5.21;52.62;101560.97;4939919;28;97912;-68
2022/10/20 04:01:05;;;;;;;;;;;;;;;5.22;52.38;101554.59;4932357;28;97915;-63
2022/10/20 04:03:31;;;;;;;;;;;;;;;5.23;52.39;101559.75;4957039;28;98009;-63
2022/10/20 04:05:57;;;;;;;;;;;;;;;5.24;51.89;101564.06;4949613;28;97976;-63
2022/10/20 04:08:23;;;;;;;;;;;;;;;5.24;52.43;101558.72;4943710;28;98621;-63
2022/10/20 04:10:49;;;;;;;;;;;;;;;5.28;52.55;101562.63;4935332;28;98385;-63
2022/10/20 04:13:15;;;;;;;;;;;;;;;5.30;52.72;101559.75;4945943;28;100289;-63
2022/10/20 04:15:41;;;;;;;;;;;;;;;5.31;52.50;101561.41;4924508;28;97912;-63
2022/10/20 04:18:07;;;;;;;;;;;;;;;5.34;52.67;101567.13;4935971;28;100328;-63
2022/10/20 04:20:33;;;;;;;;;;;;;;;5.41;52.43;101570.63;4943489;28;97901;-63
2022/10/20 04:23:00;;;;;;;;;;;;;;;5.49;52.53;101569.59;4940256;28;98196;-64
2022/10/20 04:25:26;;;;;;;;;;;;;;;5.56;52.27;101561.59;4941029;28;98164;-64
2022/10/20 04:27:52;;;;;;;;;;;;;;;5.60;52.44;101554.78;4951254;28;98631;-64
2022/10/20 04:30:19;;;;;;;;;;;;;;;5.66;52.29;101557.47;4944426;28;120978;-64
2022/10/20 04:32:45;;;;;;;;;;;;;;;5.71;52.58;101567.53;4946804;28;130018;-64
2022/10/20 04:35:12;;;;;;;;;;;;;;;5.74;52.66;101556.44;4941725;28;97916;-63
2022/10/20 04:37:38;;;;;;;;;;;;;;;5.76;52.00;101554.34;4943286;28;98287;-63
2022/10/20 04:40:05;;;;;;;;;;;;;;;5.79;52.74;101550.44;4947577;28;131265;-64
2022/10/20 04:42:31;;;;;;;;;;;;;;;5.80;52.34;101539.53;4929918;28;112540;-64
2022/10/20 04:44:57;;;;;;;;;;;;;;;5.82;52.24;101532.13;4938716;28;97936;-64
2022/10/20 04:47:24;;;;;;;;;;;;;;;5.84;52.60;101538.06;4943700;28;98115;-63
2022/10/20 04:49:51;;;;;;;;;;;;;;;5.85;52.04;101541.56;4951699;28;98273;-63
2022/10/20 04:52:19;;;;;;;;;;;;;;;5.86;52.70;101529.84;4936948;28;97847;-64
2022/10/20 04:54:45;;;;;;;;;;;;;;;5.86;52.38;101533.34;4936442;28;99016;-68
2022/10/20 04:57:11;;;;;;;;;;;;;;;5.88;52.89;101517.06;4939779;28;98246;-68
2022/10/20 04:59:38;;;;;;;;;;;;;;;5.88;52.01;101514.38;4943213;28;97885;-68
2022/10/20 05:02:04;;;;;;;;;;;;;;;5.88;52.20;101517.06;4938967;28;97953;-68
2022/10/20 05:04:30;;;;;;;;;;;;;;;5.89;52.61;101503.47;4940689;28;98118;-68
2022/10/20 05:06:57;;;;;;;;;;;;;;;5.88;52.19;101499.16;4949530;28;97959;-68
2022/10/20 05:09:24;;;;;;;;;;;;;;;5.89;52.33;101491.94;4935515;28;98295;-68
2022/10/20 05:11:50;;;;;;;;;;;;;;;5.87;52.21;101489.47;4941233;28;97661;-68
2022/10/20 05:14:16;;;;;;;;;;;;;;;5.88;52.31;101487.63;4937417;28;97901;-68
2022/10/20 05:16:42;;;;;;;;;;;;;;;5.89;52.80;101491.94;4951091;28;112542;-68
2022/10/20 05:19:10;;;;;;;;;;;;;;;5.90;52.61;101490.91;4958372;28;99992;-68
2022/10/20 05:21:36;;;;;;;;;;;;;;;5.90;52.30;101490.91;4938392;28;97901;-68
2022/10/20 05:24:03;;;;;;;;;;;;;;;5.91;52.37;101489.88;4973354;28;98086;-68
2022/10/20 05:26:33;;;;;;;;;;;;;;;5.90;51.98;101489.06;4960563;28;98527;-68
2022/10/20 05:28:59;;;;;;;;;;;;;;;5.93;52.10;101492.38;4953815;28;98266;-64
2022/10/20 05:31:25;;;;;;;;;;;;;;;5.92;52.90;101491.53;4938048;28;97969;-64
2022/10/20 05:33:54;;;;;;;;;;;;;;;5.92;52.88;101491.53;4940697;28;98057;-63
2022/10/20 05:36:23;;;;;;;;;;;;;;;5.95;52.17;101493.00;4940687;28;98153;-64
2022/10/20 05:38:50;;;;;;;;;;;;;;;5.93;52.17;101487.00;4956391;28;98171;-63
2022/10/20 05:41:19;;;;;;;;;;;;;;;5.94;52.73;101488.69;4958149;28;98786;-63
2022/10/20 05:43:49;;;;;;;;;;;;;;;5.94;52.60;101488.69;4946233;28;98295;-64
2022/10/20 05:46:15;;;;;;;;;;;;;;;5.93;52.26;101490.50;4938044;28;97938;-63
2022/10/20 05:48:42;;;;;;;;;;;;;;;5.95;52.66;101495.66;4952213;28;98375;-63
2022/10/20 05:51:16;;;;;;;;;;;;;;;5.96;52.80;101497.31;4928259;28;99072;-63
2022/10/20 05:53:43;;;;;;;;;;;;;;;5.98;52.10;101498.75;4944625;28;98325;-64
2022/10/20 05:56:11;;;;;;;;;;;;;;;5.99;52.62;101500.38;4943008;28;100228;-63
2022/10/20 05:58:37;;;;;;;;;;;;;;;6.00;52.49;101499.34;4940305;28;98235;-64
2022/10/20 06:01:08;;;;;;;;;;;;;;;6.00;52.44;101496.66;4927534;28;98294;-63
2022/10/20 06:03:34;;;;;;;;;;;;;;;6.04;52.06;101499.75;4951737;28;98966;-63
2022/10/20 06:06:00;;;;;;;;;;;;;;;6.08;52.45;101503.63;4950463;28;110218;-63
2022/10/20 06:08:31;;;;;;;;;;;;;;;6.10;52.33;101499.72;4945942;28;98301;-63
2022/10/20 06:11:01;;;;;;;;;;;;;;;6.14;52.23;101494.78;4936354;28;99432;-63
2022/10/20 06:13:27;;;;;;;;;;;;;;;6.18;52.41;101498.66;4959105;28;98146;-63
2022/10/20 06:15:53;;;;;;;;;;;;;;;6.22;52.15;101507.09;4939822;28;99751;-63
2022/10/20 06:18:20;;;;;;;;;;;;;;;6.24;51.84;101513.84;4943529;28;98372;-63
2022/10/20 06:20:46;;;;;;;;;;;;;;;6.27;52.58;101501.91;4945651;28;98424;-64
2022/10/20 06:23:12;;;;;;;;;;;;;;;6.31;52.05;101505.81;4946780;28;99019;-64
2022/10/20 06:25:38;;;;;;;;;;;;;;;6.36;51.87;101505.97;4936453;28;98026;-63
2022/10/20 06:28:04;;;;;;;;;;;;;;;6.41;52.19;101505.34;4934130;28;98061;-63
2022/10/20 06:30:30;;;;;;;;;;;;;;;6.46;52.07;101508.19;4928243;28;106209;-63
2022/10/20 06:32:57;;;;;;;;;;;;;;;6.50;52.02;101504.88;4960771;28;98163;-63
2022/10/20 06:35:23;;;;;;;;;;;;;;;6.55;52.04;101509.59;4951296;28;97981;-68
2022/10/20 06:37:49;;;;;;;;;;;;;;;6.59;51.94;101506.25;4940743;28;98639;-68
2022/10/20 06:40:16;;;;;;;;;;;;;;;6.64;52.19;101511.81;4953020;28;98237;-68
2022/10/20 06:42:42;;;;;;;;;;;;;;;6.68;52.06;101506.00;4946662;28;98076;-68
2022/10/20 06:45:09;;;;;;;;;;;;;;;6.73;51.92;101507.00;4942973;28;128704;-68
2022/10/20 06:47:36;;;;;;;;;;;;;;;6.78;52.08;101512.53;4932266;28;97911;-68
2022/10/20 06:50:02;;;;;;;;;;;;;;;6.84;51.86;101513.53;4954597;28;99209;-68
2022/10/20 06:52:28;;;;;;;;;;;;;;;6.89;51.89;101514.50;4941746;28;97991;-68
2022/10/20 06:54:56;;;;;;;;;;;;;;;6.93;52.07;101517.59;4939247;28;99634;-68
2022/10/20 06:57:22;;;;;;;;;;;;;;;6.99;51.85;101510.50;4951009;28;97782;-68
2022/10/20 06:59:48;;;;;;;;;;;;;;;7.03;51.81;101514.41;4940806;28;98150;-68
2022/10/20 07:02:15;;;;;;;;;;;;;;;7.09;51.83;101522.41;4952584;28;98137;-68
2022/10/20 07:04:41;;;;;;;;;;;;;;;7.17;51.93;101523.19;4946354;28;98449;-68
2022/10/20 07:07:07;;;;;;;;;;;;;;;7.26;51.64;101524.53;4940391;28;98099;-68
2022/10/20 07:09:33;;;;;;;;;;;;;;;7.33;51.45;101526.13;4938895;28;105949;-68
2022/10/20 07:11:59;;;;;;;;;;;;;;;7.40;51.58;101525.25;4931473;28;98252;-68
2022/10/20 07:14:25;;;;;;;;;;;;;;;7.48;51.21;101517.72;4939900;28;98622;-68
2022/10/20 07:16:53;;;;;;;;;;;;;;;7.57;51.45;101526.31;4940911;28;97876;-68
2022/10/20 07:19:19;;;;;;;;;;;;;;;7.66;51.32;101530.34;4944342;28;97964;-63
2022/10/20 07:21:45;;;;;;;;;;;;;;;7.75;51.31;101522.84;4943009;28;120184;-64
2022/10/20 07:24:11;;;;;;;;;;;;;;;7.86;51.55;101527.47;4944036;28;98597;-64
2022/10/20 07:26:39;;;;;;;;;;;;;;;7.97;51.33;101515.13;4944272;28;104507;-64
2022/10/20 07:29:05;;;;;;;;;;;;;;;8.10;50.85;101513.13;4937662;28;98707;-64
2022/10/20 07:31:36;;;;;;;;;;;;;;;8.27;51.20;101515.19;4936861;28;98236;-64
2022/10/20 07:34:03;;;;;;;;;;;;;;;8.41;50.55;101514.00;4945707;28;97823;-68
2022/10/20 07:36:30;;;;;;;;;;;;;;;8.56;50.60;101514.41;4939555;28;97985;-69
2022/10/20 07:38:58;;;;;;;;;;;;;;;8.70;50.62;101503.47;4943038;28;98342;-64
2022/10/20 07:41:24;;;;;;;;;;;;;;;8.84;50.75;101508.44;4937986;28;98187;-68
2022/10/20 07:43:51;;;;;;;;;;;;;;;9.00;50.59;101504.25;4944028;28;99722;-68
2022/10/20 07:46:19;;;;;;;;;;;;;;;9.18;50.94;101497.13;4947741;28;98260;-69
2022/10/20 07:48:45;;;;;;;;;;;;;;;9.29;50.50;101499.81;4940693;28;98201;-69
2022/10/20 07:51:30;;;;;;;;;;;;;;;9.49;50.59;101495.94;4941047;28;97771;-68
2022/10/20 07:54:01;;;;;;;;;;;;;;;9.60;50.19;101484.38;4961973;28;98461;-68
2022/10/20 07:56:34;;;;;;;;;;;;;;;9.72;50.38;101495.94;4944536;28;98644;-68
2022/10/20 07:59:01;;;;;;;;;;;;;;;9.90;50.58;101488.75;4938618;28;98270;-69
2022/10/20 08:01:28;;;;;;;;;;;;;;;10.03;50.50;101483.91;4939269;28;98302;-69
2022/10/20 08:03:55;;;;;;;;;;;;;;;10.22;50.53;101476.47;4954585;28;97698;-65
2022/10/20 08:06:21;;;;;;;;;;;;;;;10.49;50.17;101467.81;4943038;28;98069;-68
2022/10/20 08:08:47;;;;;;;;;;;;;;;10.96;49.66;101467.53;4931447;28;98463;-64
2022/10/20 08:11:13;;;;;;;;;;;;;;;11.65;48.84;101456.41;4949297;28;97983;-65
2022/10/20 08:13:40;;;;;;;;;;;;;;;11.90;48.93;101462.13;4954561;28;99415;-65
2022/10/20 08:16:07;;;;;;;;;;;;;;;12.93;48.40;101455.84;4944440;28;98019;-69
2022/10/20 08:18:33;;;;;;;;;;;;;;;13.47;48.15;101444.84;4942117;28;98993;-69
2022/10/20 08:21:10;;;;;;;;;;;;;;;13.68;48.14;101453.91;4941058;28;99191;-67
2022/10/20 08:23:41;;;;;;;;;;;;;;;14.43;47.47;101432.69;4944018;28;98104;-69
2022/10/20 08:26:07;;;;;;;;;;;;;;;14.94;47.64;101433.56;4944811;28;111496;-69
2022/10/20 08:28:34;;;;;;;;;;;;;;;15.71;47.35;101427.94;4942428;28;98561;-66
2022/10/20 08:31:04;;;;;;;;;;;;;;;16.82;46.52;101428.34;4941963;28;98087;-70
2022/10/20 08:33:30;;;;;;;;;;;;;;;18.16;45.69;101431.19;4936690;28;102461;-66
2022/10/20 08:36:02;;;;;;;;;;;;;;;21.00;43.13;101431.22;4940221;28;100528;-70
2022/10/20 08:38:29;;;;;;;;;;;;;;;24.67;39.96;101436.47;4947225;28;99249;-67
2022/10/20 08:40:55;;;;;;;;;;;;;;;28.22;37.20;101456.50;4933664;28;98155;-68
2022/10/20 08:43:22;;;;;;;;;;;;;;;30.99;35.88;101464.03;4945256;28;98152;-71
2022/10/20 08:45:50;;;;;;;;;;;;;;;32.92;34.79;101460.34;4942781;28;98823;-71
2022/10/20 08:48:19;;;;;;;;;;;;;;;33.92;35.02;101451.16;4945447;28;98520;-72
2022/10/20 08:50:47;;;;;;;;;;;;;;;33.29;36.68;101441.63;4953888;28;98066;-69
2022/10/20 08:53:14;;;;;;;;;;;;;;;34.14;35.81;101430.28;4948429;28;99687;-66
2022/10/20 08:55:42;;;;;;;;;;;;;;;33.32;36.74;101416.50;4953026;28;98820;-68
2022/10/20 08:58:16;;;;;;;;;;;;;;;31.28;39.92;101418.56;4925372;28;97962;-65
2022/10/20 09:00:42;;;;;;;;;;;;;;;31.09;40.58;101406.84;4944105;28;98057;-67
2022/10/20 09:03:15;;;;;;;;;;;;;;;30.67;40.73;101394.94;4934056;28;98029;-69
2022/10/20 09:05:43;;;;;;;;;;;;;;;29.59;42.08;101386.47;4942249;28;98424;-65
2022/10/20 09:08:10;;;;;;;;;;;;;;;29.10;42.30;101381.75;4935925;28;98033;-69
2022/10/20 09:10:41;;;;;;;;;;;;;;;28.80;42.26;101376.06;4953828;28;98022;-66
2022/10/20 09:13:19;;;;;;;;;;;;;;;28.07;43.57;101363.97;4943879;28;98205;-65
2022/10/20 09:15:47;;;;;;;;;;;;;;;28.83;41.97;101369.78;4954996;28;98514;-65
2022/10/20 09:18:13;;;;;;;;;;;;;;;28.22;42.49;101373.34;4954210;28;97833;-65
2022/10/20 09:20:53;;;;;;;;;;;;;;;27.66;43.62;101364.28;4942143;28;97837;-65
2022/10/20 09:23:24;;;;;;;;;;;;;;;27.53;43.84;101367.53;4948195;28;98572;-66
2022/10/20 09:25:51;;;;;;;;;;;;;;;28.10;43.13;101357.72;4932707;28;105970;-68
2022/10/20 09:28:23;;;;;;;;;;;;;;;30.58;39.83;101355.53;4940726;28;98111;-66
2022/10/20 09:30:50;;;;;;;;;;;;;;;33.78;35.34;101356.94;4943537;28;97929;-68
2022/10/20 09:33:30;;;;;;;;;;;;;;;31.81;38.83;101358.81;4938181;28;99679;-69
2022/10/20 09:36:17;;;;;;;;;;;;;;;30.41;41.52;101353.34;4960499;28;98121;-66
2022/10/20 09:38:47;;;;;;;;;;;;;;;30.67;40.94;101346.84;4937917;28;97997;-66
2022/10/20 09:41:22;;;;;;;;;;;;;;;33.28;36.94;101337.50;4939261;28;98211;-65
2022/10/20 09:43:59;;;;;;;;;;;;;;;34.31;35.79;101335.50;4940846;28;98523;-66
2022/10/20 09:46:27;;;;;;;;;;;;;;;33.44;36.93;101335.06;4928569;28;97919;-68
2022/10/20 09:48:53;;;;;;;;;;;;;;;32.70;37.76;101324.81;4941889;28;97912;-69
2022/10/20 09:51:24;;;;;;;;;;;;;;;34.81;34.79;101326.75;4951634;28;97877;-69
2022/10/20 09:53:52;;;;;;;;;;;;;;;35.58;33.11;101327.22;4927592;28;98147;-66
2022/10/20 09:56:29;;;;;;;;;;;;;;;34.61;34.77;101318.94;4941615;28;99465;-65
2022/10/20 09:58:56;;;;;;;;;;;;;;;32.28;37.95;101309.59;4926519;28;97940;-69
2022/10/20 10:01:22;;;;;;;;;;;;;;;32.80;38.63;101309.25;4942291;28;97933;-68
2022/10/20 10:03:51;;;;;;;;;;;;;;;35.07;35.83;101316.97;4929755;28;98071;-66
2022/10/20 10:06:26;;;;;;;;;;;;;;;35.09;35.88;101311.72;4946220;28;97993;-64
2022/10/20 10:08:53;;;;;;;;;;;;;;;34.29;37.12;101307.16;4960251;28;97844;-65
2022/10/20 10:11:20;;;;;;;;;;;;;;;36.10;35.37;101301.69;4938231;28;98015;-68
2022/10/20 10:13:48;;;;;;;;;;;;;;;38.56;32.86;101303.75;4938168;28;98218;-66
2022/10/20 10:16:16;;;;;;;;;;;;;;;39.49;32.13;101296.38;4944838;28;97873;-65
2022/10/20 10:19:02;;;;;;;;;;;;;;;38.95;33.39;101294.28;4945012;28;98073;-68
2022/10/20 10:21:52;;;;;;;;;;;;;;;38.53;34.54;101276.47;4946222;28;98266;-68
2022/10/20 10:24:42;;;;;;;;;;;;;;;39.80;33.01;101278.97;4943810;28;98356;-68
2022/10/20 10:27:24;;;;;;;;;;;;;;;39.59;33.08;101271.16;4953005;28;98035;-69
2022/10/20 10:29:51;;;;;;;;;;;;;;;39.78;32.53;101263.75;4959522;28;98067;-64
2022/10/20 10:32:23;;;;;;;;;;;;;;;39.98;32.11;101262.28;4944012;28;97998;-68
2022/10/20 10:35:06;;;;;;;;;;;;;;;40.64;31.21;101261.72;4937547;28;98201;-68
2022/10/20 10:37:33;;;;;;;;;;;;;;;41.16;30.64;101254.66;4946870;28;97892;-68
2022/10/20 10:40:00;;;;;;;;;;;;;;;41.06;31.30;101247.34;4939793;28;99001;-65
2022/10/20 10:43:05;;;;;;;;;;;;;;;41.58;30.94;101252.25;4934959;28;98023;-65
2022/10/20 10:45:33;;;;;;;;;;;;;;;39.62;32.70;101236.41;4970762;28;99500;-65
2022/10/20 10:48:25;;;;;;;;;;;;;;;38.45;33.89;101228.00;4951340;28;98073;-68
2022/10/20 10:50:57;;;;;;;;;;;;;;;40.19;31.77;101226.94;4957884;28;97979;-68
2022/10/20 10:53:52;;;;;;;;;;;;;;;41.86;30.13;101230.53;4960977;28;97845;-68
2022/10/20 10:56:40;;;;;;;;;;;;;;;42.58;29.13;101213.38;4961041;28;99814;-65
2022/10/20 10:59:12;;;;;;;;;;;;;;;43.13;28.61;101204.84;4969166;28;97806;-66
2022/10/20 11:01:40;;;;;;;;;;;;;;;43.01;28.66;101203.75;4969450;28;97752;-64
2022/10/20 11:04:33;;;;;;;;;;;;;;;43.68;27.58;101196.16;4967597;28;98026;-68
2022/10/20 11:07:18;;;;;;;;;;;;;;;41.83;28.52;101182.59;4975059;28;98220;-66
2022/10/20 11:10:03;;;;;;;;;;;;;;;35.16;35.87;101160.41;4934958;28;98500;-69
2022/10/20 11:12:47;;;;;;;;;;;;;;;32.16;38.62;101165.00;4954505;28;97797;-69
2022/10/20 11:15:16;;;;;;;;;;;;;;;33.23;35.88;101157.22;4976450;28;98041;-69
2022/10/20 11:17:53;;;;;;;;;;;;;;;30.85;38.34;101163.38;4959773;28;99169;-66
2022/10/20 11:20:24;;;;;;;;;;;;;;;27.68;41.93;101149.94;4951645;28;98019;-69
2022/10/20 11:23:17;;;;;;;;;;;;;;;25.92;43.15;101153.47;4955818;28;97958;-68
2022/10/20 11:26:09;;;;;;;;;;;;;;;24.69;44.62;101158.59;4948708;28;97983;-68
2022/10/20 11:28:36;;;;;;;;;;;;;;;23.75;44.94;101149.22;4948231;28;99024;-64
2022/10/20 11:31:02;;;;;;;;;;;;;;;23.03;45.47;101137.56;4933881;28;98317;-63
2022/10/20 11:33:42;;;;;;;;;;;;;;;22.39;46.06;101147.94;4956782;28;98170;-66
2022/10/20 11:36:19;;;;;;;;;;;;;;;21.72;46.17;101144.75;4956684;28;98190;-64
2022/10/20 11:38:53;;;;;;;;;;;;;;;21.14;46.62;101145.25;4942727;28;98209;-64
2022/10/20 11:41:44;;;;;;;;;;;;;;;20.66;46.87;101137.94;4970032;28;98170;-65
2022/10/20 11:44:15;;;;;;;;;;;;;;;20.11;47.14;101134.53;4951327;28;98228;-65
2022/10/20 11:46:50;;;;;;;;;;;;;;;19.69;47.33;101132.34;4951856;28;97841;-69
2022/10/20 11:49:17;;;;;;;;;;;;;;;19.35;47.44;101133.72;4958123;28;97942;-69
2022/10/20 11:52:08;;;;;;;;;;;;;;;19.08;47.47;101135.44;4932736;28;98115;-64
2022/10/20 11:54:55;;;;;;;;;;;;;;;18.80;47.70;101131.97;4952943;28;98043;-70
2022/10/20 11:57:24;;;;;;;;;;;;;;;18.59;47.62;101136.22;4929023;28;98008;-65
2022/10/20 12:00:31;;;;;;;;;;;;;;;18.43;47.67;101138.47;4951999;28;97824;-69
2022/10/20 12:03:14;;;;;;;;;;;;;;;18.18;47.49;101136.22;4971844;28;100929;-65
2022/10/20 12:05:53;;;;;;;;;;;;;;;17.97;47.47;101135.81;4962337;28;98340;-68
2022/10/20 12:08:46;;;;;;;;;;;;;;;17.76;47.32;101130.69;4950494;28;98230;-69
2022/10/20 12:11:35;;;;;;;;;;;;;;;17.62;47.45;101133.34;4960650;28;98518;-64
2022/10/20 12:14:25;;;;;;;;;;;;;;;17.46;47.22;101134.72;4914110;28;98480;-69
2022/10/20 12:16:54;;;;;;;;;;;;;;;17.33;47.24;101128.13;4967237;28;97880;-65
2022/10/20 12:19:27;;;;;;;;;;;;;;;17.28;47.10;101133.63;4956934;28;97943;-69
2022/10/20 12:22:22;;;;;;;;;;;;;;;17.23;46.98;101136.44;4949236;28;98089;-65
2022/10/20 12:24:52;;;;;;;;;;;;;;;17.15;46.74;101134.38;4954805;28;98593;-65
2022/10/20 12:27:22;;;;;;;;;;;;;;;17.11;46.76;101134.16;4956227;28;98148;-65
2022/10/20 12:29:55;;;;;;;;;;;;;;;17.13;46.62;101125.69;4940939;28;103722;-65
2022/10/20 12:32:24;;;;;;;;;;;;;;;17.11;46.54;101123.28;4942651;28;98119;-67
2022/10/20 12:34:51;;;;;;;;;;;;;;;17.09;46.39;101119.22;4958608;28;99460;-64
2022/10/20 12:37:17;;;;;;;;;;;;;;;17.00;46.38;101121.78;4955436;28;97869;-65
2022/10/20 12:39:44;;;;;;;;;;;;;;;16.98;46.26;101118.56;4957305;28;98368;-64
2022/10/20 12:42:22;;;;;;;;;;;;;;;16.95;46.30;101118.34;4937686;28;97994;-65
2022/10/20 12:44:48;;;;;;;;;;;;;;;16.95;46.35;101110.19;4944549;28;98023;-65
2022/10/20 12:47:22;;;;;;;;;;;;;;;16.91;46.18;101104.50;4936580;28;98420;-65
2022/10/20 12:50:20;;;;;;;;;;;;;;;16.89;46.14;101106.69;4942059;28;98086;-69
2022/10/20 12:52:47;;;;;;;;;;;;;;;16.90;46.04;101100.19;4930961;28;100548;-64
2022/10/20 12:55:19;;;;;;;;;;;;;;;16.93;46.12;101086.75;4951036;28;97924;-65
2022/10/20 12:57:46;;;;;;;;;;;;;;;16.99;46.07;101083.97;4936542;28;98085;-69
2022/10/20 13:00:22;;;;;;;;;;;;;;;17.01;46.20;101082.56;4940933;28;98101;-65